createdAt,value
2018-09-22T00:01:37.519Z,78.95
2018-09-22T00:04:40.849Z,78.13
2018-09-22T00:07:44.205Z,78.10
2018-09-22T00:10:47.714Z,78.00
2018-09-22T00:13:51.009Z,77.85
2018-09-22T00:16:54.294Z,77.77
2018-09-22T00:19:57.460Z,78.51
2018-09-22T00:23:00.694Z,78.65
2018-09-22T00:26:04.008Z,79.00
2018-09-22T00:29:07.569Z,78.69
2018-09-22T00:32:10.840Z,78.76
2018-09-22T00:35:14.261Z,79.86
2018-09-22T00:38:18.686Z,78.76
2018-09-22T00:41:21.943Z,79.64
2018-09-22T00:44:25.220Z,79.57
2018-09-22T00:47:28.453Z,78.72
2018-09-22T00:50:31.807Z,79.24
2018-09-22T00:53:35.143Z,78.90
2018-09-22T00:56:38.533Z,79.42
2018-09-22T00:59:42.012Z,79.52
2018-09-22T01:02:45.318Z,79.66
2018-09-22T01:05:48.686Z,79.55
2018-09-22T01:08:52.069Z,79.99
2018-09-22T01:11:55.383Z,79.83
2018-09-22T01:14:58.725Z,79.60
2018-09-22T01:18:02.044Z,80.76
2018-09-22T01:21:05.366Z,78.68
2018-09-22T01:24:08.688Z,80.07
2018-09-22T01:27:12.048Z,79.83
2018-09-22T01:30:15.591Z,80.00
2018-09-22T01:33:18.919Z,80.70
2018-09-22T01:36:22.308Z,80.33
2018-09-22T01:39:25.693Z,80.73
2018-09-22T01:42:29.034Z,81.93
2018-09-22T01:45:32.374Z,81.55
2018-09-22T01:48:35.811Z,82.02
2018-09-22T01:51:39.237Z,82.21
2018-09-22T01:54:42.504Z,81.80
2018-09-22T01:57:45.800Z,81.71
2018-09-22T02:00:49.202Z,82.65
2018-09-22T02:03:52.486Z,82.27
2018-09-22T02:06:55.670Z,82.23
2018-09-22T02:09:58.991Z,81.70
2018-09-22T02:13:02.249Z,82.12
2018-09-22T02:16:05.634Z,81.92
2018-09-22T02:19:08.946Z,82.04
2018-09-22T02:22:12.262Z,81.73
2018-09-22T02:25:15.562Z,83.09
2018-09-22T02:28:18.820Z,81.95
2018-09-22T02:31:22.068Z,81.75
2018-09-22T02:34:25.437Z,82.01
2018-09-22T02:37:28.733Z,81.91
2018-09-22T02:40:32.094Z,81.39
2018-09-22T02:43:35.455Z,82.05
2018-09-22T02:46:38.841Z,83.03
2018-09-22T02:49:42.040Z,82.36
2018-09-22T02:52:45.241Z,83.11
2018-09-22T02:55:48.517Z,84.04
2018-09-22T02:58:51.833Z,83.17
2018-09-22T03:01:55.134Z,84.12
2018-09-22T03:04:58.407Z,84.77
2018-09-22T03:08:01.672Z,85.38
2018-09-22T03:11:05.131Z,85.61
2018-09-22T03:14:09.006Z,85.09
2018-09-22T03:17:12.304Z,85.02
2018-09-22T03:20:15.573Z,85.18
2018-09-22T03:23:18.904Z,85.74
2018-09-22T03:26:22.210Z,84.51
2018-09-22T03:29:25.691Z,85.29
2018-09-22T03:32:28.901Z,84.13
2018-09-22T03:35:32.221Z,83.90
2018-09-22T03:38:35.439Z,84.60
2018-09-22T03:41:38.993Z,84.91
2018-09-22T03:44:42.294Z,83.81
2018-09-22T03:47:45.487Z,84.72
2018-09-22T03:50:48.681Z,84.78
2018-09-22T03:53:51.865Z,85.02
2018-09-22T03:56:55.033Z,84.99
2018-09-22T03:59:58.403Z,85.39
2018-09-22T04:03:01.799Z,86.29
2018-09-22T04:06:05.115Z,86.63
2018-09-22T04:09:08.553Z,86.12
2018-09-22T04:12:11.819Z,86.60
2018-09-22T04:15:15.149Z,87.70
2018-09-22T04:18:18.275Z,87.61
2018-09-22T04:21:21.452Z,87.82
2018-09-22T04:24:24.875Z,87.76
2018-09-22T04:27:28.215Z,87.67
2018-09-22T04:30:31.592Z,88.08
2018-09-22T04:33:34.904Z,87.58
2018-09-22T04:36:38.248Z,86.76
2018-09-22T04:39:41.543Z,87.24
2018-09-22T04:42:45.049Z,86.22
2018-09-22T04:45:48.294Z,86.62
2018-09-22T04:48:51.841Z,86.92
2018-09-22T04:51:55.265Z,86.54
2018-09-22T04:54:58.486Z,87.61
2018-09-22T04:58:01.791Z,87.28
2018-09-22T05:01:05.161Z,87.82
2018-09-22T05:04:08.566Z,88.51
2018-09-22T05:07:11.880Z,87.99
2018-09-22T05:10:15.138Z,88.48
2018-09-22T05:13:18.534Z,88.01
2018-09-22T05:16:21.746Z,88.01
2018-09-22T05:19:25.097Z,88.90
2018-09-22T05:22:28.378Z,88.95
2018-09-22T05:25:31.739Z,89.21
2018-09-22T05:28:35.121Z,88.62
2018-09-22T05:31:38.378Z,88.98
2018-09-22T05:34:41.608Z,88.30
2018-09-22T05:37:44.854Z,88.49
2018-09-22T05:40:48.445Z,88.40
2018-09-22T05:43:51.628Z,88.72
2018-09-22T05:46:54.814Z,89.05
2018-09-22T05:49:58.015Z,88.61
2018-09-22T05:53:01.293Z,88.81
2018-09-22T05:56:04.566Z,89.29
2018-09-22T05:59:07.724Z,88.79
2018-09-22T06:02:10.907Z,88.81
2018-09-22T06:05:14.090Z,88.33
2018-09-22T06:08:17.298Z,88.95
2018-09-22T06:11:20.873Z,88.58
2018-09-22T06:14:24.086Z,88.50
2018-09-22T06:17:27.517Z,88.25
2018-09-22T06:20:31.852Z,87.97
2018-09-22T06:23:35.691Z,87.94
2018-09-22T06:27:09.865Z,87.87
2018-09-22T06:30:13.613Z,87.03
2018-09-22T06:33:17.133Z,87.49
2018-09-22T06:36:20.419Z,87.09
2018-09-22T06:39:23.667Z,86.98
2018-09-22T06:42:27.019Z,86.73
2018-09-22T06:45:30.883Z,88.02
2018-09-22T06:48:34.346Z,86.71
2018-09-22T06:51:37.800Z,87.43
2018-09-22T06:54:44.571Z,86.63
2018-09-22T06:57:47.745Z,86.29
2018-09-22T07:00:51.064Z,87.30
2018-09-22T07:03:54.986Z,86.47
2018-09-22T07:06:58.208Z,87.34
2018-09-22T07:10:01.484Z,86.12
2018-09-22T07:13:04.809Z,85.89
2018-09-22T07:16:08.143Z,86.43
2018-09-22T07:19:11.480Z,86.54
2018-09-22T07:22:20.633Z,87.07
2018-09-22T07:25:23.937Z,87.28
2018-09-22T07:28:27.679Z,87.96
2018-09-22T07:31:31.281Z,88.10
2018-09-22T07:34:34.772Z,87.54
2018-09-22T07:37:38.265Z,86.99
2018-09-22T07:40:41.564Z,88.27
2018-09-22T07:43:44.802Z,87.85
2018-09-22T07:46:48.326Z,87.25
2018-09-22T07:49:51.563Z,87.44
2018-09-22T07:52:54.999Z,85.71
2018-09-22T07:55:58.655Z,86.05
2018-09-22T07:59:02.189Z,87.08
2018-09-22T08:02:06.389Z,85.35
2018-09-22T08:05:09.714Z,85.96
2018-09-22T08:08:13.017Z,84.39
2018-09-22T08:11:16.289Z,84.02
2018-09-22T08:14:19.515Z,84.28
2018-09-22T08:17:23.146Z,83.17
2018-09-22T08:20:26.520Z,81.82
2018-09-22T08:23:29.769Z,83.93
2018-09-22T08:26:33.028Z,83.34
2018-09-22T08:29:36.313Z,83.16
2018-09-22T08:32:39.635Z,82.05
2018-09-22T08:35:42.886Z,81.34
2018-09-22T08:38:46.146Z,81.46
2018-09-22T08:41:49.442Z,81.49
2018-09-22T08:44:52.611Z,80.87
2018-09-22T08:47:55.817Z,80.63
2018-09-22T08:51:00.138Z,80.41
2018-09-22T08:54:03.485Z,79.34
2018-09-22T08:57:07.125Z,79.33
2018-09-22T09:00:11.035Z,80.33
2018-09-22T09:03:14.288Z,79.68
2018-09-22T09:06:17.826Z,79.30
2018-09-22T09:09:21.419Z,77.38
2018-09-22T09:12:24.891Z,78.06
2018-09-22T09:15:28.353Z,76.95
2018-09-22T09:18:31.636Z,76.13
2018-09-22T09:21:35.050Z,75.03
2018-09-22T09:24:38.449Z,76.56
2018-09-22T09:27:41.871Z,75.11
2018-09-22T09:30:45.269Z,74.59
2018-09-22T09:33:49.113Z,76.09
2018-09-22T09:36:52.352Z,73.01
2018-09-22T09:39:55.520Z,73.47
2018-09-22T09:42:58.799Z,71.11
2018-09-22T09:46:02.071Z,73.34
2018-09-22T09:49:05.278Z,73.31
2018-09-22T09:52:08.882Z,72.08
2018-09-22T09:55:12.109Z,69.97
2018-09-22T09:58:15.302Z,69.87
2018-09-22T10:01:18.508Z,69.31
2018-09-22T10:04:21.833Z,68.94
2018-09-22T10:07:24.953Z,68.22
2018-09-22T10:10:28.350Z,68.36
2018-09-22T10:13:31.584Z,67.53
2018-09-22T10:16:34.831Z,67.64
2018-09-22T10:19:38.046Z,69.21
2018-09-22T10:22:41.215Z,68.50
2018-09-22T10:25:44.412Z,69.47
2018-09-22T10:28:47.696Z,68.99
2018-09-22T10:31:51.091Z,68.08
2018-09-22T10:34:54.636Z,70.04
2018-09-22T10:37:57.949Z,68.22
2018-09-22T10:41:01.152Z,67.63
2018-09-22T10:44:04.497Z,67.82
2018-09-22T10:47:07.789Z,69.11
2018-09-22T10:50:11.157Z,67.71
2018-09-22T10:53:14.446Z,66.89
2018-09-22T10:56:17.853Z,67.44
2018-09-22T10:59:21.115Z,67.56
2018-09-22T11:02:24.349Z,65.97
2018-09-22T11:05:27.677Z,64.72
2018-09-22T11:08:30.915Z,65.62
2018-09-22T11:11:34.140Z,67.50
2018-09-22T11:14:37.446Z,67.53
2018-09-22T11:17:40.639Z,65.46
2018-09-22T11:20:43.944Z,65.52
2018-09-22T11:23:47.180Z,66.18
2018-09-22T11:26:50.518Z,66.71
2018-09-22T11:29:53.783Z,67.25
2018-09-22T11:32:57.331Z,66.72
2018-09-22T11:36:00.718Z,66.77
2018-09-22T11:39:07.862Z,66.10
2018-09-22T11:42:11.159Z,66.28
2018-09-22T11:45:14.374Z,65.50
2018-09-22T11:48:17.768Z,63.25
2018-09-22T11:51:21.238Z,63.81
2018-09-22T11:54:24.464Z,63.53
2018-09-22T11:57:27.752Z,63.63
2018-09-22T12:00:30.993Z,64.60
2018-09-22T12:03:34.230Z,64.29
2018-09-22T12:06:37.664Z,63.43
2018-09-22T12:09:40.971Z,65.33
2018-09-22T12:12:44.220Z,66.52
2018-09-22T12:15:47.552Z,65.87
2018-09-22T12:18:50.778Z,65.92
2018-09-22T12:21:54.449Z,65.03
2018-09-22T12:24:57.669Z,63.52
2018-09-22T12:28:01.524Z,61.83
2018-09-22T12:31:05.025Z,61.75
2018-09-22T12:34:08.381Z,61.46
2018-09-22T12:37:11.870Z,61.02
2018-09-22T12:40:15.208Z,60.13
2018-09-22T12:47:25.005Z,61.30
2018-09-22T12:50:28.376Z,60.33
2018-09-22T12:53:31.679Z,59.14
2018-09-22T12:56:35.108Z,58.59
2018-09-22T12:59:38.850Z,58.34
2018-09-22T13:02:42.391Z,57.91
2018-09-22T13:05:45.947Z,57.66
2018-09-22T13:08:49.610Z,58.55
2018-09-22T13:11:53.007Z,58.49
2018-09-22T13:14:57.346Z,58.09
2018-09-22T13:18:00.759Z,58.03
2018-09-22T13:21:04.066Z,58.26
2018-09-22T13:24:07.459Z,58.38
2018-09-22T13:27:10.711Z,59.17
2018-09-22T13:30:14.062Z,58.15
2018-09-22T13:33:17.319Z,57.76
2018-09-22T13:36:20.819Z,58.05
2018-09-22T13:39:24.130Z,59.12
2018-09-22T13:42:27.535Z,59.28
2018-09-22T13:45:30.974Z,57.97
2018-09-22T13:48:34.304Z,58.99
2018-09-22T13:51:37.790Z,60.04
2018-09-22T13:54:41.155Z,59.95
2018-09-22T13:57:44.511Z,59.88
2018-09-22T14:00:48.045Z,58.97
2018-09-22T14:03:51.508Z,58.98
2018-09-22T14:06:54.897Z,59.24
2018-09-22T14:09:58.223Z,59.54
2018-09-22T14:13:01.388Z,58.73
2018-09-22T14:16:04.913Z,58.25
2018-09-22T14:19:08.576Z,58.52
2018-09-22T14:22:11.962Z,58.34
2018-09-22T14:25:15.349Z,58.86
2018-09-22T14:28:18.796Z,59.00
2018-09-22T14:31:22.259Z,59.08
2018-09-22T14:34:25.604Z,58.84
2018-09-22T14:37:28.971Z,58.59
2018-09-22T14:40:32.230Z,59.58
2018-09-22T14:43:35.632Z,60.00
2018-09-22T14:46:38.907Z,59.16
2018-09-22T14:49:42.297Z,60.01
2018-09-22T14:52:45.608Z,59.06
2018-09-22T14:55:49.036Z,59.11
2018-09-22T14:58:52.406Z,59.58
2018-09-22T15:01:55.669Z,60.61
2018-09-22T15:04:59.130Z,60.36
2018-09-22T15:08:02.373Z,60.72
2018-09-22T15:11:05.658Z,60.66
2018-09-22T15:14:09.331Z,60.95
2018-09-22T15:17:12.775Z,61.49
2018-09-22T15:20:16.061Z,61.68
2018-09-22T15:23:19.497Z,61.77
2018-09-22T15:26:22.847Z,62.71
2018-09-22T15:29:26.196Z,62.18
2018-09-22T15:32:29.475Z,62.98
2018-09-22T15:35:32.679Z,62.35
2018-09-22T15:38:36.455Z,61.89
2018-09-22T15:41:39.827Z,60.10
2018-09-22T15:44:43.114Z,60.68
2018-09-22T15:47:46.313Z,60.14
2018-09-22T15:50:49.691Z,58.03
2018-09-22T15:53:53.012Z,58.82
2018-09-22T15:56:56.592Z,59.24
2018-09-22T16:00:00.051Z,59.23
2018-09-22T16:03:03.522Z,59.25
2018-09-22T16:06:06.685Z,60.14
2018-09-22T16:09:09.921Z,60.61
2018-09-22T16:12:15.510Z,61.70
2018-09-22T16:15:19.013Z,63.18
2018-09-22T16:18:22.446Z,64.29
2018-09-22T16:21:25.623Z,67.31
2018-09-22T16:24:28.807Z,70.56
2018-09-22T16:27:32.260Z,72.01
2018-09-22T16:30:35.493Z,74.82
2018-09-22T16:33:38.802Z,75.99
2018-09-22T16:36:41.950Z,76.61
2018-09-22T16:39:45.209Z,75.55
2018-09-22T16:42:48.374Z,75.58
2018-09-22T16:45:51.530Z,74.62
2018-09-22T16:48:54.836Z,76.86
2018-09-22T16:51:58.103Z,77.92
2018-09-22T16:55:01.351Z,77.59
2018-09-22T16:58:04.632Z,78.16
2018-09-22T17:01:08.088Z,79.73
2018-09-22T17:04:11.357Z,79.45
2018-09-22T17:07:14.506Z,80.37
2018-09-22T17:10:17.739Z,81.20
2018-09-22T17:13:20.981Z,81.87
2018-09-22T17:16:24.274Z,82.73
2018-09-22T17:19:27.385Z,82.12
2018-09-22T17:22:30.553Z,83.38
2018-09-22T17:25:33.784Z,85.06
2018-09-22T17:28:37.193Z,86.79
2018-09-22T17:31:40.630Z,86.40
2018-09-22T17:34:44.028Z,87.83
2018-09-22T17:37:47.371Z,89.43
2018-09-22T17:40:50.614Z,92.54
2018-09-22T17:43:53.976Z,93.40
2018-09-22T17:46:57.308Z,94.58
2018-09-22T17:50:00.790Z,95.02
2018-09-22T17:53:04.197Z,94.71
2018-09-22T17:56:07.526Z,96.04
2018-09-22T17:59:10.984Z,97.14
2018-09-22T18:02:14.184Z,98.55
2018-09-22T18:05:17.518Z,99.37
2018-09-22T18:08:20.670Z,99.49
2018-09-22T18:11:23.882Z,100.00
2018-09-22T18:14:27.734Z,100.00
2018-09-22T18:17:31.074Z,99.24
2018-09-22T18:20:34.347Z,99.22
2018-09-22T18:23:37.557Z,99.71
2018-09-22T18:26:40.742Z,99.39
2018-09-22T18:29:44.037Z,99.66
2018-09-22T18:32:47.313Z,100.00
2018-09-22T18:35:50.539Z,98.20
2018-09-22T18:38:53.888Z,95.76
2018-09-22T18:41:57.888Z,91.82
2018-09-22T18:45:01.163Z,91.59
2018-09-22T18:48:04.445Z,89.19
2018-09-22T18:51:07.725Z,85.84
2018-09-22T18:54:10.898Z,85.03
2018-09-22T18:57:14.145Z,83.95
2018-09-22T19:00:17.447Z,89.64
2018-09-22T19:03:20.938Z,88.02
2018-09-22T19:06:25.055Z,89.01
2018-09-22T19:09:28.345Z,91.52
2018-09-22T19:12:31.682Z,86.59
2018-09-22T19:15:50.585Z,87.36
2018-09-22T19:18:58.681Z,90.19
2018-09-22T19:22:05.516Z,91.92
2018-09-22T19:25:12.157Z,90.68
2018-09-22T19:28:18.743Z,91.57
2018-09-22T19:31:25.722Z,91.18
2018-09-22T19:34:35.407Z,92.11
2018-09-22T19:37:45.739Z,93.14
2018-09-22T19:41:02.261Z,93.68
2018-09-22T19:44:12.531Z,93.26
2018-09-22T19:48:19.035Z,94.14
2018-09-22T19:51:24.120Z,95.09
2018-09-22T19:54:27.399Z,95.19
2018-09-22T19:57:30.635Z,94.73
2018-09-22T20:00:33.825Z,92.15
2018-09-22T20:03:37.101Z,91.05
2018-09-22T20:06:40.518Z,90.70
2018-09-22T20:09:43.906Z,95.05
2018-09-22T20:13:18.430Z,97.53
2018-09-22T20:16:22.240Z,96.54
2018-09-22T20:19:25.822Z,94.19
2018-09-22T20:22:29.373Z,95.51
2018-09-22T20:25:33.037Z,97.30
2018-09-22T20:28:36.597Z,96.32
2018-09-22T20:31:40.211Z,95.34
2018-09-22T20:34:43.587Z,99.81
2018-09-22T20:37:46.888Z,100.00
2018-09-22T20:40:50.381Z,99.42
2018-09-22T20:43:53.795Z,94.96
2018-09-22T20:50:18.531Z,98.44
2018-09-22T20:53:23.307Z,99.25
2018-09-22T20:56:26.549Z,97.51
2018-09-22T20:59:29.758Z,98.51
2018-09-22T21:02:33.053Z,97.37
2018-09-22T21:05:36.614Z,99.36
2018-09-22T21:08:39.933Z,100.00
2018-09-22T21:11:43.277Z,99.87
2018-09-22T21:14:46.647Z,99.90
2018-09-22T21:17:49.975Z,100.00
2018-09-22T21:20:53.269Z,100.00
2018-09-22T21:23:56.595Z,100.00
2018-09-22T21:26:59.786Z,100.00
2018-09-22T21:30:03.094Z,100.00
2018-09-22T21:33:06.289Z,100.00
2018-09-22T21:36:09.638Z,98.63
2018-09-22T21:39:12.908Z,97.29
2018-09-22T21:42:16.225Z,95.17
2018-09-22T21:45:19.465Z,92.23
2018-09-22T21:48:22.678Z,92.39
2018-09-22T21:51:25.966Z,96.31
2018-09-22T21:54:29.173Z,96.40
2018-09-22T21:57:32.381Z,93.86
2018-09-22T22:00:35.779Z,97.38
2018-09-22T22:03:39.137Z,100.00
2018-09-22T22:06:42.452Z,98.85
2018-09-22T22:09:45.664Z,99.39
2018-09-22T22:12:49.107Z,99.91
2018-09-22T22:15:52.558Z,100.00
2018-09-22T22:18:56.029Z,100.00
2018-09-22T22:21:59.426Z,100.00
2018-09-22T22:25:02.832Z,100.00
2018-09-22T22:28:06.376Z,100.00
2018-09-22T22:31:09.800Z,99.25
2018-09-22T22:34:13.211Z,100.00
2018-09-22T22:37:16.641Z,100.00
2018-09-22T22:40:20.163Z,100.00
2018-09-22T22:43:23.522Z,100.00
2018-09-22T22:46:27.026Z,100.00
2018-09-22T22:49:30.333Z,100.00
2018-09-22T22:52:33.558Z,100.00
2018-09-22T22:55:36.789Z,100.00
2018-09-22T22:58:40.104Z,100.00
2018-09-22T23:01:43.368Z,100.00
2018-09-22T23:04:46.889Z,100.00
2018-09-22T23:07:50.294Z,100.00
2018-09-22T23:10:53.574Z,100.00
2018-09-22T23:13:56.846Z,100.00
2018-09-22T23:17:00.172Z,100.00
2018-09-22T23:20:03.589Z,100.00
2018-09-22T23:23:06.967Z,100.00
2018-09-22T23:26:10.827Z,100.00
2018-09-22T23:29:14.185Z,100.00
2018-09-22T23:32:17.369Z,100.00
2018-09-22T23:35:20.759Z,100.00
2018-09-22T23:38:23.996Z,100.00
2018-09-22T23:41:27.333Z,100.00
2018-09-22T23:44:30.565Z,100.00
2018-09-22T23:47:33.813Z,100.00
2018-09-22T23:50:37.072Z,100.00
2018-09-22T23:53:40.348Z,100.00
2018-09-22T23:56:43.449Z,100.00
2018-09-22T23:59:46.734Z,100.00
